Terminal Aerodrome Forecast
Issued by NWS Charleston, SC

Home | Current Version | Previous Version | Text Only | Print | Product List | Glossary On
Versions: 1 2 3 4 5 6 7 8 9 10 11 12
225
FTUS42 KCHS 180522
TAFSAV
TAF
KSAV 180522Z 1806/1906 30010G18KT P6SM SKC
     FM181000 32009KT P6SM SKC
     FM182100 27004KT P6SM SKC=

USA.gov is the U.S. government's official web portal to all federal, state and local government web resources and services.